Time;durP1;ratioP1;P1;durP2;ratioP2;P2;SDS_P1;SDS_P2;PMS_P1;PMS_P2;Temp;Humidity;BMP_temperature;BMP_pressure;BME280_temperature;BME280_humidity;BME280_pressure;Samples;Min_cycle;Max_cycle;Signal;HPM_P1;HPM_P2
2023/03/06 00:00:18;;;;;;;14.07;6.40;;;10.00;99.90;;;;;;5091832;28;20384;-68
2023/03/06 00:02:44;;;;;;;12.38;6.68;;;10.00;99.90;;;;;;5089959;28;20124;-67
2023/03/06 00:05:13;;;;;;;15.13;6.00;;;10.00;99.90;;;;;;5091786;28;20032;-68
2023/03/06 00:07:40;;;;;;;10.32;6.60;;;10.00;99.90;;;;;;5091681;28;20078;-69
2023/03/06 00:10:06;;;;;;;13.10;6.07;;;10.10;99.90;;;;;;5090061;28;20028;-68
2023/03/06 00:12:32;;;;;;;22.30;6.90;;;10.10;99.90;;;;;;5091880;28;20324;-67
2023/03/06 00:14:58;;;;;;;11.35;6.20;;;10.00;99.90;;;;;;5091876;28;20024;-68
2023/03/06 00:17:26;;;;;;;20.88;6.68;;;10.00;99.90;;;;;;5095893;28;20103;-69
2023/03/06 00:19:52;;;;;;;14.50;6.40;;;10.10;99.90;;;;;;5095745;28;20108;-69
2023/03/06 00:22:18;;;;;;;16.13;7.03;;;10.10;99.90;;;;;;5095809;28;20087;-69
2023/03/06 00:24:44;;;;;;;15.52;6.43;;;10.20;99.90;;;;;;5095599;28;20467;-69
2023/03/06 00:27:10;;;;;;;17.10;5.88;;;10.30;99.90;;;;;;5095863;28;20095;-69
2023/03/06 00:29:36;;;;;;;18.20;6.90;;;10.30;99.90;;;;;;5095346;28;20020;-69
2023/03/06 00:32:02;;;;;;;16.10;6.65;;;10.30;99.90;;;;;;5095405;28;20436;-69
2023/03/06 00:34:28;;;;;;;16.60;6.93;;;10.30;99.90;;;;;;5095350;28;20056;-68
2023/03/06 00:36:55;;;;;;;18.40;6.63;;;10.30;99.90;;;;;;5095811;28;20428;-69
2023/03/06 00:39:23;;;;;;;15.13;7.70;;;10.30;99.90;;;;;;5095519;28;20039;-70
2023/03/06 00:41:49;;;;;;;12.82;6.25;;;10.30;99.90;;;;;;5093503;28;20035;-69
2023/03/06 00:44:15;;;;;;;18.23;7.35;;;10.30;99.90;;;;;;5095179;28;20036;-69
2023/03/06 00:46:41;;;;;;;14.43;6.57;;;10.40;99.90;;;;;;5095227;28;20376;-68
2023/03/06 00:49:07;;;;;;;15.97;6.47;;;10.40;99.90;;;;;;5095126;28;20046;-69
2023/03/06 00:51:33;;;;;;;17.13;7.28;;;10.40;99.90;;;;;;5094871;28;20417;-69
2023/03/06 00:54:00;;;;;;;15.60;7.57;;;10.50;99.90;;;;;;5095076;28;20016;-67
2023/03/06 00:56:26;;;;;;;17.38;6.60;;;10.50;99.90;;;;;;5093496;28;20020;-69
2023/03/06 00:58:52;;;;;;;14.97;6.80;;;10.50;99.90;;;;;;5093625;28;20134;-69
2023/03/06 01:01:18;;;;;;;14.55;6.53;;;10.50;99.90;;;;;;5094787;28;20464;-69
2023/03/06 01:03:44;;;;;;;13.10;6.30;;;10.50;99.90;;;;;;5094345;28;20414;-69
2023/03/06 01:06:11;;;;;;;16.20;6.90;;;10.50;99.90;;;;;;5094757;28;20489;-69
2023/03/06 01:08:37;;;;;;;19.67;7.00;;;10.40;99.90;;;;;;5094806;28;20341;-69
2023/03/06 01:11:04;;;;;;;17.27;6.93;;;10.30;99.90;;;;;;5093289;28;20089;-69
2023/03/06 01:13:30;;;;;;;13.27;6.28;;;10.30;99.90;;;;;;5094635;28;20051;-68
2023/03/06 01:16:09;;;;;;;14.10;6.63;;;10.20;99.90;;;;;;5094665;28;20024;-69
2023/03/06 01:18:36;;;;;;;12.60;6.25;;;10.10;99.90;;;;;;5094776;28;20052;-69
2023/03/06 01:21:03;;;;;;;12.20;5.97;;;10.00;99.90;;;;;;5094593;28;20028;-69
2023/03/06 01:23:29;;;;;;;11.50;5.93;;;9.80;99.90;;;;;;5096527;28;20032;-69
2023/03/06 01:25:55;;;;;;;18.20;6.83;;;9.60;99.90;;;;;;5114866;28;20028;-69
2023/03/06 01:28:22;;;;;;;12.60;6.45;;;9.60;99.90;;;;;;5113615;28;20035;-68
2023/03/06 01:30:49;;;;;;;16.35;6.60;;;9.50;99.90;;;;;;5114843;28;20022;-70
2023/03/06 01:33:15;;;;;;;13.82;6.00;;;9.40;99.90;;;;;;5115022;28;20485;-69
2023/03/06 01:35:41;;;;;;;18.17;6.77;;;9.40;99.90;;;;;;5115079;28;20016;-69
2023/03/06 01:38:07;;;;;;;22.70;7.63;;;9.50;99.90;;;;;;5114772;28;20024;-69
2023/03/06 01:40:37;;;;;;;15.48;7.03;;;9.40;99.90;;;;;;5114765;28;20016;-69
2023/03/06 01:43:11;;;;;;;16.50;6.82;;;9.40;99.90;;;;;;5112608;28;20526;-69
2023/03/06 01:45:37;;;;;;;18.20;6.95;;;9.40;99.90;;;;;;5114328;28;20043;-69
2023/03/06 01:48:03;;;;;;;16.27;7.00;;;9.40;99.90;;;;;;5114276;28;20057;-68
2023/03/06 01:50:29;;;;;;;18.58;6.50;;;9.40;99.90;;;;;;5114835;28;20026;-69
2023/03/06 01:52:58;;;;;;;14.53;6.47;;;9.40;99.90;;;;;;5114781;28;20411;-69
2023/03/06 01:55:29;;;;;;;21.88;6.72;;;9.50;99.90;;;;;;5096123;28;20027;-69
2023/03/06 01:57:59;;;;;;;15.18;6.30;;;9.50;99.90;;;;;;5093713;28;20107;-69
2023/03/06 02:00:29;;;;;;;17.55;6.80;;;9.50;99.90;;;;;;5092663;28;20055;-69
2023/03/06 02:03:06;;;;;;;14.13;6.80;;;9.50;99.90;;;;;;5093944;28;20023;-72
2023/03/06 02:05:33;;;;;;;13.20;6.15;;;9.60;99.90;;;;;;5093947;28;20024;-68
2023/03/06 02:08:01;;;;;;;20.48;7.40;;;9.60;99.90;;;;;;5093738;28;20045;-69
2023/03/06 02:10:27;;;;;;;18.25;6.30;;;9.70;99.90;;;;;;5093707;28;20024;-68
2023/03/06 02:12:53;;;;;;;18.30;6.40;;;9.70;99.90;;;;;;5093527;28;20031;-70
2023/03/06 02:15:21;;;;;;;15.80;6.18;;;9.70;99.90;;;;;;5093267;28;20020;-69
2023/03/06 02:17:50;;;;;;;19.25;7.43;;;9.70;99.90;;;;;;5093901;28;20108;-69
2023/03/06 02:20:25;;;;;;;18.83;6.60;;;9.80;99.90;;;;;;5093239;28;20060;-68
2023/03/06 02:23:30;;;;;;;15.70;6.50;;;9.90;99.90;;;;;;5093166;28;20074;-65
2023/03/06 02:25:59;;;;;;;20.33;7.82;;;9.90;99.90;;;;;;5093028;28;20035;-68
2023/03/06 02:28:26;;;;;;;18.05;6.68;;;10.00;99.90;;;;;;5092733;28;20025;-68
2023/03/06 02:30:54;;;;;;;15.75;7.57;;;10.00;99.90;;;;;;5093302;28;20035;-67
2023/03/06 02:33:23;;;;;;;16.08;6.82;;;9.90;99.90;;;;;;5092800;28;20495;-68
2023/03/06 02:35:54;;;;;;;17.27;6.68;;;9.80;99.90;;;;;;5092733;28;20032;-68
2023/03/06 02:38:23;;;;;;;19.48;7.18;;;9.80;99.90;;;;;;5093093;28;20030;-68
2023/03/06 02:40:51;;;;;;;14.45;6.47;;;9.80;99.90;;;;;;5093160;28;20048;-68
2023/03/06 02:43:24;;;;;;;15.07;7.03;;;9.70;99.90;;;;;;5092226;28;20052;-67
2023/03/06 02:45:50;;;;;;;16.50;6.47;;;9.70;99.90;;;;;;5092908;28;20130;-67
2023/03/06 02:48:17;;;;;;;17.80;6.72;;;9.70;99.90;;;;;;5091158;28;20030;-68
2023/03/06 02:50:44;;;;;;;16.85;7.13;;;9.70;99.90;;;;;;5092726;28;20026;-68
2023/03/06 02:53:13;;;;;;;17.88;7.28;;;9.70;99.90;;;;;;5092394;28;20024;-68
2023/03/06 02:55:39;;;;;;;14.38;6.70;;;9.70;99.90;;;;;;5092371;28;20028;-67
2023/03/06 02:58:06;;;;;;;18.17;7.00;;;9.70;99.90;;;;;;5092604;28;20028;-67
2023/03/06 03:00:33;;;;;;;17.42;6.72;;;9.70;99.90;;;;;;5092686;28;20341;-67
2023/03/06 03:02:59;;;;;;;13.98;6.40;;;9.60;99.90;;;;;;5091938;28;20540;-67
2023/03/06 03:05:26;;;;;;;15.07;6.80;;;9.70;99.90;;;;;;5092160;28;20109;-68
2023/03/06 03:07:52;;;;;;;18.13;6.73;;;9.70;99.90;;;;;;5092216;28;20020;-68
2023/03/06 03:10:20;;;;;;;15.02;6.32;;;9.80;99.90;;;;;;5107889;27;20270;-67
2023/03/06 03:12:46;;;;;;;16.52;6.40;;;9.80;99.90;;;;;;5092007;28;20020;-67
2023/03/06 03:15:12;;;;;;;20.13;7.00;;;9.80;99.90;;;;;;5091931;28;20031;-68
2023/03/06 03:17:40;;;;;;;10.90;6.80;;;9.80;99.90;;;;;;5092128;28;20111;-68
2023/03/06 03:20:11;;;;;;;22.17;6.60;;;9.80;99.90;;;;;;5090554;28;20262;-67
2023/03/06 03:22:37;;;;;;;17.02;6.80;;;9.90;99.90;;;;;;5092389;28;20043;-67
2023/03/06 03:25:04;;;;;;;21.03;6.33;;;9.80;99.90;;;;;;5091906;28;20030;-68
2023/03/06 03:27:31;;;;;;;15.43;6.88;;;9.80;99.90;;;;;;5091940;28;20548;-67
2023/03/06 03:29:58;;;;;;;16.30;7.77;;;9.80;99.90;;;;;;5091739;28;20551;-68
2023/03/06 03:32:24;;;;;;;17.13;6.25;;;9.90;99.90;;;;;;5091686;28;20330;-67
2023/03/06 03:34:51;;;;;;;20.10;7.25;;;9.90;99.90;;;;;;5091862;28;20098;-66
2023/03/06 03:37:17;;;;;;;;;;;10.00;99.90;;;;;;5091521;28;20034;-67
2023/03/06 03:39:43;;;;;;;16.00;7.55;;;10.00;99.90;;;;;;5091105;28;20395;-68
2023/03/06 03:42:09;;;;;;;16.08;6.88;;;10.00;99.90;;;;;;5090946;28;20127;-67
2023/03/06 03:44:36;;;;;;;14.27;6.35;;;10.10;99.90;;;;;;5089453;28;20093;-67
2023/03/06 03:47:02;;;;;;;;;;;10.20;99.90;;;;;;5091480;28;20054;-68
2023/03/06 03:49:28;;;;;;;18.30;6.65;;;10.30;99.90;;;;;;5090605;28;20297;-67
2023/03/06 03:51:54;;;;;;;17.15;6.82;;;10.30;99.90;;;;;;5090699;28;20151;-67
2023/03/06 03:54:22;;;;;;;18.63;8.30;;;10.20;99.90;;;;;;5091153;28;20074;-66
2023/03/06 03:56:49;;;;;;;19.70;7.47;;;10.10;99.90;;;;;;5091151;28;20024;-68
2023/03/06 03:59:15;;;;;;;;;;;10.00;99.90;;;;;;5091632;28;20061;-68
2023/03/06 04:01:41;;;;;;;14.57;6.83;;;10.00;99.90;;;;;;5089929;28;20049;-68
2023/03/06 04:04:07;;;;;;;12.90;6.70;;;9.90;99.90;;;;;;5091259;28;20032;-68
2023/03/06 04:06:33;;;;;;;16.87;6.57;;;9.90;99.90;;;;;;5091558;28;20265;-68
2023/03/06 04:09:00;;;;;;;16.23;6.97;;;9.90;99.90;;;;;;5092081;28;20026;-66
2023/03/06 04:11:27;;;;;;;21.70;7.95;;;9.80;99.90;;;;;;5091803;28;20087;-68
2023/03/06 04:13:53;;;;;;;22.70;7.60;;;9.90;99.90;;;;;;5091466;28;20107;-67
2023/03/06 04:16:19;;;;;;;20.47;7.17;;;9.90;99.90;;;;;;5091974;28;20040;-66
2023/03/06 04:18:45;;;;;;;19.93;8.17;;;9.80;99.90;;;;;;5091737;28;20103;-65
2023/03/06 04:21:11;;;;;;;15.90;7.47;;;9.70;99.90;;;;;;5090158;28;20447;-64
2023/03/06 04:23:38;;;;;;;21.42;8.00;;;9.70;99.90;;;;;;5094853;28;20032;-66
2023/03/06 04:26:06;;;;;;;19.15;6.82;;;9.70;99.90;;;;;;5112429;28;20136;-66
2023/03/06 04:28:32;;;;;;;16.90;7.32;;;9.70;99.90;;;;;;5112571;28;20102;-62
2023/03/06 04:30:58;;;;;;;17.38;6.90;;;9.70;99.90;;;;;;5112203;28;20024;-66
2023/03/06 04:33:26;;;;;;;22.20;7.70;;;9.60;99.90;;;;;;5111697;28;20051;-66
2023/03/06 04:35:52;;;;;;;15.75;6.78;;;9.60;99.90;;;;;;5111076;28;20262;-66
2023/03/06 04:38:18;;;;;;;38.15;9.80;;;9.70;99.90;;;;;;5111531;28;20116;-66
2023/03/06 04:40:44;;;;;;;18.77;7.90;;;9.60;99.90;;;;;;5111835;28;20358;-66
2023/03/06 04:43:10;;;;;;;27.92;8.05;;;9.60;99.90;;;;;;5109895;28;20123;-67
2023/03/06 04:45:37;;;;;;;15.38;7.05;;;9.60;99.90;;;;;;5112451;28;20023;-67
2023/03/06 04:48:03;;;;;;;13.70;7.38;;;9.60;99.90;;;;;;5101236;28;20028;-65
2023/03/06 04:50:31;;;;;;;17.35;7.65;;;9.60;99.90;;;;;;5071661;28;20535;-66
2023/03/06 04:53:00;;;;;;;19.40;7.72;;;9.50;99.90;;;;;;5071477;28;20032;-66
2023/03/06 04:55:27;;;;;;;24.40;8.40;;;9.50;99.90;;;;;;5089528;28;20028;-66
2023/03/06 04:57:53;;;;;;;13.98;7.32;;;9.50;99.90;;;;;;5091643;28;20609;-62
2023/03/06 05:00:29;;;;;;;21.47;7.27;;;9.50;99.90;;;;;;5091351;28;20016;-66
2023/03/06 05:02:55;;;;;;;17.52;7.97;;;9.50;99.90;;;;;;5093518;28;20032;-65
2023/03/06 05:05:22;;;;;;;22.33;7.75;;;9.50;99.90;;;;;;5093656;28;20325;-66
2023/03/06 05:07:49;;;;;;;15.23;8.02;;;9.50;99.90;;;;;;5094682;28;20036;-66
2023/03/06 05:10:16;;;;;;;21.47;7.67;;;9.50;99.90;;;;;;5095581;28;20016;-66
2023/03/06 05:12:43;;;;;;;20.40;8.55;;;9.50;99.90;;;;;;5095226;28;20262;-66
2023/03/06 05:15:13;;;;;;;19.30;8.18;;;9.50;99.90;;;;;;5094040;28;20461;-63
2023/03/06 05:17:39;;;;;;;16.48;7.25;;;9.50;99.90;;;;;;5091414;28;20034;-62
2023/03/06 05:20:10;;;;;;;18.20;8.50;;;9.60;99.90;;;;;;5088467;28;20419;-63
2023/03/06 05:22:36;;;;;;;19.02;8.65;;;9.60;99.90;;;;;;5094605;28;20024;-62
2023/03/06 05:25:04;;;;;;;16.88;7.53;;;9.60;99.90;;;;;;5094922;28;20028;-62
2023/03/06 05:27:30;;;;;;;20.40;8.07;;;9.60;99.90;;;;;;5095798;28;20434;-65
2023/03/06 05:29:57;;;;;;;21.33;8.07;;;9.60;99.90;;;;;;5095805;28;20135;-64
2023/03/06 05:32:24;;;;;;;23.25;8.10;;;9.60;99.90;;;;;;5095629;28;20028;-66
2023/03/06 05:34:50;;;;;;;18.60;7.18;;;9.70;99.90;;;;;;5095657;28;20042;-68
2023/03/06 05:37:18;;;;;;;22.55;7.80;;;9.70;99.90;;;;;;5095543;28;20391;-65
2023/03/06 05:39:44;;;;;;;16.20;7.35;;;9.70;99.90;;;;;;5095984;28;20024;-67
2023/03/06 05:42:11;;;;;;;;;;;9.80;99.90;;;;;;5095584;28;20048;-66
2023/03/06 05:44:37;;;;;;;19.63;8.37;;;9.90;99.90;;;;;;5095504;28;19922;-66
2023/03/06 05:47:04;;;;;;;19.33;8.05;;;9.90;99.90;;;;;;5095858;28;20024;-65
2023/03/06 05:49:35;;;;;;;17.63;8.00;;;10.10;99.90;;;;;;5095208;28;20122;-63
2023/03/06 05:52:03;;;;;;;16.40;7.18;;;10.10;99.90;;;;;;5095083;28;20024;-66
2023/03/06 05:54:30;;;;;;;14.57;7.10;;;10.20;99.90;;;;;;5095019;28;20024;-66
2023/03/06 05:56:57;;;;;;;13.82;6.45;;;10.30;99.90;;;;;;5094843;28;20035;-66
2023/03/06 05:59:27;;;;;;;14.45;7.38;;;10.30;99.90;;;;;;5095101;28;20020;-66
2023/03/06 06:01:54;;;;;;;25.13;7.78;;;10.20;99.90;;;;;;5094813;28;20095;-66
2023/03/06 06:04:21;;;;;;;24.60;8.52;;;10.20;99.90;;;;;;5095109;28;20376;-63
2023/03/06 06:06:53;;;;;;;18.00;8.15;;;10.20;99.90;;;;;;5094715;28;20060;-65
2023/03/06 06:09:21;;;;;;;16.75;7.65;;;10.30;99.90;;;;;;5094363;28;20120;-66
2023/03/06 06:11:52;;;;;;;24.33;7.90;;;10.50;99.90;;;;;;5094807;28;20047;-65
2023/03/06 06:14:18;;;;;;;19.83;8.00;;;10.70;99.90;;;;;;5093771;28;20039;-66
2023/03/06 06:16:48;;;;;;;21.37;7.57;;;11.10;99.90;;;;;;5094955;28;20020;-66
2023/03/06 06:19:17;;;;;;;19.30;6.93;;;12.10;99.90;;;;;;5094905;28;20266;-68
2023/03/06 06:21:45;;;;;;;15.18;6.38;;;13.40;99.90;;;;;;5094566;28;20490;-66
2023/03/06 06:24:12;;;;;;;12.45;5.28;;;15.10;99.90;;;;;;5094626;28;20129;-67
2023/03/06 06:26:38;;;;;;;15.68;6.13;;;16.10;99.90;;;;;;5094751;28;20472;-67
2023/03/06 06:29:06;;;;;;;17.00;5.25;;;17.50;99.90;;;;;;5094164;28;20103;-66
2023/03/06 06:31:35;;;;;;;13.65;5.00;;;18.40;99.90;;;;;;5094044;28;20024;-67
2023/03/06 06:34:02;;;;;;;12.90;4.90;;;19.10;99.90;;;;;;5094738;28;20024;-67
2023/03/06 06:36:28;;;;;;;15.90;5.28;;;19.50;99.90;;;;;;5093784;28;20028;-66
2023/03/06 06:38:54;;;;;;;16.52;4.97;;;20.20;99.90;;;;;;5093935;28;20064;-67
2023/03/06 06:41:20;;;;;;;11.27;4.38;;;20.40;99.90;;;;;;5093906;28;20503;-66
2023/03/06 06:43:47;;;;;;;18.00;6.10;;;20.80;99.90;;;;;;5092924;28;20043;-67
2023/03/06 06:46:13;;;;;;;14.60;5.05;;;21.70;99.90;;;;;;5093352;28;20030;-68
2023/03/06 06:48:40;;;;;;;20.88;5.55;;;20.40;99.90;;;;;;5093424;28;20024;-67
2023/03/06 06:51:06;;;;;;;12.45;5.90;;;19.10;99.90;;;;;;5091626;28;20095;-67
2023/03/06 06:53:32;;;;;;;22.58;5.47;;;18.30;99.90;;;;;;5093178;28;20302;-68
2023/03/06 06:55:59;;;;;;;17.40;5.65;;;18.30;99.90;;;;;;5093093;28;20054;-68
2023/03/06 06:58:26;;;;;;;12.65;5.43;;;17.50;99.90;;;;;;5091437;28;20024;-69
2023/03/06 07:00:52;;;;;;;14.75;5.57;;;17.40;99.90;;;;;;5091883;28;20044;-68
2023/03/06 07:03:19;;;;;;;16.25;4.90;;;17.50;99.90;;;;;;5092599;28;20384;-67
2023/03/06 07:05:54;;;;;;;13.23;4.82;;;18.70;99.90;;;;;;5092179;28;20028;-68
2023/03/06 07:08:22;;;;;;;11.70;4.57;;;20.00;99.90;;;;;;5092022;28;20206;-67
2023/03/06 07:10:50;;;;;;;22.13;5.78;;;20.60;99.90;;;;;;5092036;28;20028;-69
2023/03/06 07:13:16;;;;;;;16.83;4.80;;;20.90;99.90;;;;;;5090498;28;20389;-68
2023/03/06 07:15:43;;;;;;;13.65;5.65;;;19.50;99.90;;;;;;5092060;28;20024;-66
2023/03/06 07:18:11;;;;;;;22.73;5.57;;;18.00;99.90;;;;;;5092445;28;20150;-67
2023/03/06 07:20:37;;;;;;;14.07;5.10;;;17.30;99.90;;;;;;5092628;28;20028;-69
2023/03/06 07:23:15;;;;;;;14.85;4.78;;;16.70;99.90;;;;;;5092818;28;20345;-65
2023/03/06 07:25:41;;;;;;;12.55;4.88;;;15.90;99.90;;;;;;5091851;28;20394;-68
2023/03/06 07:28:10;;;;;;;16.63;5.22;;;15.80;99.90;;;;;;5092792;28;20107;-69
2023/03/06 07:30:38;;;;;;;17.08;4.88;;;15.30;99.90;;;;;;5092759;28;20027;-70
2023/03/06 07:33:07;;;;;;;14.18;5.28;;;14.50;99.90;;;;;;5092756;28;20475;-68
2023/03/06 07:35:34;;;;;;;14.13;4.75;;;14.40;99.90;;;;;;5091280;28;20024;-68
2023/03/06 07:38:00;;;;;;;11.35;5.10;;;14.50;99.90;;;;;;5092797;28;20034;-67
2023/03/06 07:40:28;;;;;;;16.67;5.40;;;14.40;99.90;;;;;;5091243;28;20097;-66
2023/03/06 07:42:56;;;;;;;15.18;5.75;;;14.80;99.90;;;;;;5092504;28;20040;-65
2023/03/06 07:45:25;;;;;;;13.55;4.60;;;16.40;99.90;;;;;;5092349;28;20097;-67
2023/03/06 07:47:52;;;;;;;14.23;5.25;;;17.50;99.90;;;;;;5092808;28;20439;-67
2023/03/06 07:50:19;;;;;;;14.60;5.35;;;17.50;99.90;;;;;;5092655;28;20407;-67
2023/03/06 07:52:45;;;;;;;12.20;4.72;;;17.40;99.90;;;;;;5092295;28;20021;-74
2023/03/06 07:55:12;;;;;;;17.23;5.45;;;16.80;99.90;;;;;;5074846;28;20039;-69
2023/03/06 07:57:38;;;;;;;13.63;5.20;;;16.40;99.90;;;;;;5072489;28;20102;-71
2023/03/06 08:00:08;;;;;;;14.85;5.32;;;16.00;99.90;;;;;;5070524;28;20025;-69
2023/03/06 08:02:34;;;;;;;14.70;5.15;;;15.90;99.90;;;;;;5071331;28;20024;-70
2023/03/06 08:05:00;;;;;;;16.73;5.70;;;15.70;99.90;;;;;;5071979;28;20442;-69
2023/03/06 08:07:28;;;;;;;11.83;4.33;;;15.70;99.90;;;;;;5072227;28;20255;-70
2023/03/06 08:09:57;;;;;;;13.40;5.13;;;15.20;99.90;;;;;;5072271;28;20060;-69
2023/03/06 08:12:23;;;;;;;16.92;5.85;;;15.10;99.90;;;;;;5071700;28;20021;-70
2023/03/06 08:14:50;;;;;;;12.25;5.18;;;15.00;99.90;;;;;;5071692;28;20021;-71
2023/03/06 08:17:16;;;;;;;17.73;5.22;;;14.70;99.90;;;;;;5072442;28;20035;-71
2023/03/06 08:19:42;;;;;;;19.40;5.85;;;14.60;99.90;;;;;;5070504;28;20101;-70
2023/03/06 08:22:09;;;;;;;19.20;5.27;;;14.90;99.90;;;;;;5072343;28;20111;-70
2023/03/06 08:24:36;;;;;;;11.88;4.75;;;15.00;99.90;;;;;;5082457;28;20282;-73
2023/03/06 08:27:03;;;;;;;20.13;5.50;;;15.20;99.90;;;;;;5092298;28;20085;-71
2023/03/06 08:29:30;;;;;;;13.52;4.70;;;15.30;99.90;;;;;;5091813;28;20024;-72
2023/03/06 08:31:56;;;;;;;11.75;4.47;;;15.10;99.90;;;;;;5091794;28;20031;-69
2023/03/06 08:34:25;;;;;;;10.77;4.57;;;14.90;99.90;;;;;;5091900;28;20383;-70
2023/03/06 08:36:52;;;;;;;8.32;4.20;;;14.90;99.90;;;;;;5093608;28;20258;-71
2023/03/06 08:39:19;;;;;;;9.57;4.53;;;14.90;99.90;;;;;;5095681;28;20089;-71
2023/03/06 08:41:46;;;;;;;12.45;4.32;;;15.00;99.90;;;;;;5094239;28;20357;-71
2023/03/06 08:44:12;;;;;;;15.10;6.35;;;15.10;99.90;;;;;;5095669;28;20097;-68
2023/03/06 08:46:38;;;;;;;13.68;5.72;;;15.70;99.90;;;;;;5096449;28;20069;-70
2023/03/06 08:49:04;;;;;;;11.38;4.28;;;16.50;99.90;;;;;;5095165;28;20035;-71
2023/03/06 08:51:32;;;;;;;11.18;4.43;;;16.30;99.90;;;;;;5093503;28;20110;-71
2023/03/06 08:53:59;;;;;;;16.95;4.82;;;16.70;99.90;;;;;;5094748;28;20034;-72
2023/03/06 08:56:27;;;;;;;11.00;4.03;;;16.60;99.90;;;;;;5095062;28;20359;-73
2023/03/06 08:58:55;;;;;;;11.38;4.32;;;16.20;99.90;;;;;;5094603;28;20076;-70
2023/03/06 09:01:25;;;;;;;8.30;4.07;;;16.20;99.90;;;;;;5094899;28;20024;-70
2023/03/06 09:03:54;;;;;;;11.88;4.05;;;15.90;99.90;;;;;;5094521;28;20051;-72
2023/03/06 09:06:21;;;;;;;10.10;3.72;;;15.70;99.90;;;;;;5094675;28;20077;-70
2023/03/06 09:08:49;;;;;;;;;;;15.60;99.90;;;;;;5095549;28;20092;-70
2023/03/06 09:11:15;;;;;;;9.25;3.55;;;15.70;99.90;;;;;;5094687;28;19904;-71
2023/03/06 09:13:42;;;;;;;13.45;4.30;;;15.50;99.90;;;;;;5094582;28;20459;-72
2023/03/06 09:16:10;;;;;;;6.70;3.78;;;15.40;99.90;;;;;;5093751;28;20141;-71
2023/03/06 09:18:37;;;;;;;10.48;3.95;;;15.30;99.90;;;;;;5095246;28;20052;-70
2023/03/06 09:21:05;;;;;;;10.82;4.20;;;15.50;99.90;;;;;;5095127;28;20059;-71
2023/03/06 09:23:32;;;;;;;10.50;4.25;;;15.30;99.90;;;;;;5094898;28;20060;-69
2023/03/06 09:25:58;;;;;;;;;;;15.30;99.90;;;;;;5093669;28;20050;-68
2023/03/06 09:28:26;;;;;;;8.73;3.78;;;15.10;99.90;;;;;;5093454;28;20267;-71
2023/03/06 09:30:52;;;;;;;12.82;4.40;;;15.40;99.90;;;;;;5093472;28;20071;-70
2023/03/06 09:33:19;;;;;;;7.97;3.85;;;15.70;99.90;;;;;;5094042;28;20549;-71
2023/03/06 09:35:51;;;;;;;12.18;4.22;;;15.70;99.90;;;;;;5094090;28;20035;-70
2023/03/06 09:38:19;;;;;;;10.52;3.65;;;15.80;99.90;;;;;;5093948;28;20065;-72
2023/03/06 09:40:58;;;;;;;7.18;4.00;;;15.50;99.90;;;;;;5093841;28;20038;-70
2023/03/06 09:43:45;;;;;;;9.35;3.45;;;15.20;99.90;;;;;;5093665;28;20069;-70
2023/03/06 09:46:59;;;;;;;9.40;3.70;;;15.10;99.90;;;;;;5094783;28;20024;-70
2023/03/06 09:49:52;;;;;;;7.05;3.75;;;15.20;99.90;;;;;;5093856;28;20032;-70
2023/03/06 09:52:30;;;;;;;7.90;3.42;;;15.30;99.90;;;;;;5094819;28;20024;-71
2023/03/06 09:55:15;;;;;;;10.57;4.00;;;15.10;99.90;;;;;;5094121;28;20036;-70
2023/03/06 09:57:51;;;;;;;7.60;3.90;;;15.00;99.90;;;;;;5094637;28;20023;-71
2023/03/06 10:00:25;;;;;;;7.53;3.83;;;15.10;99.90;;;;;;5094176;28;20106;-70
2023/03/06 10:03:19;;;;;;;12.75;3.95;;;15.30;99.90;;;;;;5094124;28;20569;-69
2023/03/06 10:05:53;;;;;;;18.90;4.75;;;15.20;99.90;;;;;;5092713;28;20181;-71
2023/03/06 10:08:40;;;;;;;10.60;3.20;;;15.30;99.90;;;;;;5094373;28;20020;-70
2023/03/06 10:11:10;;;;;;;7.47;4.10;;;14.90;99.90;;;;;;5092296;28;20039;-70
2023/03/06 10:13:56;;;;;;;12.82;3.65;;;15.10;99.90;;;;;;5094202;28;20016;-71
2023/03/06 10:16:22;;;;;;;6.78;3.35;;;15.20;99.90;;;;;;5093971;28;20043;-70
2023/03/06 10:18:50;;;;;;;12.63;3.78;;;15.20;99.90;;;;;;5092179;28;20392;-70
2023/03/06 10:21:43;;;;;;;9.88;3.30;;;15.30;99.90;;;;;;5093271;28;20031;-71
2023/03/06 10:24:50;;;;;;;12.60;3.42;;;15.20;99.90;;;;;;5093452;28;20373;-70
2023/03/06 10:27:43;;;;;;;10.65;3.20;;;15.00;99.90;;;;;;5092519;28;20055;-72
2023/03/06 10:30:52;;;;;;;8.00;2.72;;;14.80;99.90;;;;;;5091700;28;20452;-70
2023/03/06 10:33:41;;;;;;;8.90;2.80;;;14.80;99.90;;;;;;5093685;28;20026;-75
2023/03/06 10:36:16;;;;;;;11.10;3.20;;;14.90;99.90;;;;;;5093243;28;20031;-71
2023/03/06 10:38:47;;;;;;;13.80;3.30;;;15.10;99.90;;;;;;5093584;28;20032;-70
2023/03/06 10:41:13;;;;;;;11.85;3.38;;;15.30;99.90;;;;;;5091817;28;20028;-70
2023/03/06 10:43:41;;;;;;;10.37;3.00;;;15.20;99.90;;;;;;5092820;28;20059;-71
2023/03/06 10:46:13;;;;;;;13.20;3.30;;;15.40;99.90;;;;;;5092763;28;20020;-72
2023/03/06 10:48:40;;;;;;;13.27;3.75;;;15.50;99.90;;;;;;5092858;28;20058;-70
2023/03/06 10:51:20;;;;;;;13.35;3.58;;;15.70;99.90;;;;;;5093157;28;20111;-71
2023/03/06 10:54:12;;;;;;;9.27;2.50;;;15.90;99.90;;;;;;5093625;28;20016;-71
2023/03/06 10:56:41;;;;;;;15.80;3.17;;;16.00;99.90;;;;;;5084761;28;20043;-71
2023/03/06 10:59:11;;;;;;;9.52;2.50;;;16.10;99.90;;;;;;5092315;28;20506;-71
2023/03/06 11:01:39;;;;;;;7.70;2.63;;;16.20;99.90;;;;;;5092642;28;20027;-71
2023/03/06 11:04:26;;;;;;;11.32;2.80;;;16.20;99.90;;;;;;5092548;28;20456;-72
2023/03/06 11:07:13;;;;;;;9.38;2.78;;;16.00;99.90;;;;;;5092890;28;20024;-70
2023/03/06 11:09:56;;;;;;;16.45;3.42;;;15.90;99.90;;;;;;5092421;28;20028;-70
2023/03/06 11:12:31;;;;;;;17.33;3.75;;;16.20;99.90;;;;;;5092863;28;20028;-70
2023/03/06 11:15:06;;;;;;;15.90;3.45;;;16.60;99.90;;;;;;5092243;28;20020;-71
2023/03/06 11:17:37;;;;;;;17.27;3.43;;;17.00;99.90;;;;;;5090732;28;20172;-71
2023/03/06 11:20:18;;;;;;;10.48;3.03;;;16.50;99.90;;;;;;5091758;28;20024;-71
2023/03/06 11:23:02;;;;;;;17.00;4.07;;;16.60;99.90;;;;;;5092566;28;20514;-70
2023/03/06 11:25:47;;;;;;;16.05;3.38;;;16.80;99.90;;;;;;5092421;28;20039;-71
2023/03/06 11:28:33;;;;;;;14.00;3.67;;;17.00;99.90;;;;;;5092383;28;20024;-70
2023/03/06 11:31:15;;;;;;;10.95;2.80;;;17.10;99.90;;;;;;5091987;28;20063;-71
2023/03/06 11:34:08;;;;;;;17.52;4.00;;;17.00;99.90;;;;;;5092846;28;20418;-71
2023/03/06 11:36:52;;;;;;;22.63;3.92;;;16.60;99.90;;;;;;5093215;28;20464;-71
2023/03/06 11:39:48;;;;;;;20.73;3.65;;;16.60;99.90;;;;;;5092919;28;20024;-72
2023/03/06 11:42:28;;;;;;;13.00;3.63;;;16.50;99.90;;;;;;5060122;28;20043;-70
2023/03/06 11:45:37;;;;;;;16.00;3.88;;;16.60;99.90;;;;;;5073512;28;20029;-71
2023/03/06 11:48:24;;;;;;;10.50;2.92;;;16.50;99.90;;;;;;5010414;28;20029;-69
2023/03/06 11:50:54;;;;;;;20.40;3.58;;;16.60;99.90;;;;;;4993824;28;20084;-72
2023/03/06 11:53:30;;;;;;;19.77;3.75;;;16.60;99.90;;;;;;5010880;28;20026;-72
2023/03/06 11:56:25;;;;;;;20.98;4.50;;;16.60;99.90;;;;;;5010435;28;20121;-71
2023/03/06 11:59:03;;;;;;;18.02;3.42;;;16.70;99.90;;;;;;5030529;28;20033;-72
2023/03/06 12:02:13;;;;;;;18.85;4.07;;;16.90;99.90;;;;;;5030483;28;20034;-67
2023/03/06 12:04:56;;;;;;;20.55;4.53;;;17.20;99.90;;;;;;5029578;28;20406;-71
2023/03/06 12:07:37;;;;;;;17.27;4.60;;;17.00;99.90;;;;;;5029892;28;20033;-71
2023/03/06 12:10:26;;;;;;;23.23;4.55;;;17.00;99.90;;;;;;5030011;28;20509;-66
2023/03/06 12:13:26;;;;;;;19.63;4.88;;;17.00;99.90;;;;;;5033293;28;20063;-69
2023/03/06 12:16:27;;;;;;;17.02;3.67;;;17.00;99.90;;;;;;5033073;28;20064;-70
2023/03/06 12:19:00;;;;;;;19.13;6.20;;;16.90;99.90;;;;;;5033447;28;20505;-71
2023/03/06 12:21:57;;;;;;;20.50;4.70;;;16.90;99.90;;;;;;5050359;28;20039;-71
2023/03/06 12:24:49;;;;;;;30.13;4.40;;;16.40;99.90;;;;;;5085948;28;20183;-73
2023/03/06 12:27:54;;;;;;;21.55;3.92;;;16.30;99.90;;;;;;5076127;28;20016;-71
2023/03/06 12:30:43;;;;;;;21.20;3.83;;;16.10;99.90;;;;;;5076078;28;20102;-75
2023/03/06 12:33:35;;;;;;;18.23;3.90;;;16.00;99.90;;;;;;5076514;28;20066;-71
2023/03/06 12:36:30;;;;;;;17.80;3.00;;;16.00;99.90;;;;;;5076010;28;20040;-70
2023/03/06 12:39:07;;;;;;;18.23;3.53;;;15.80;99.90;;;;;;5076433;28;20071;-71
2023/03/06 12:42:05;;;;;;;20.33;3.33;;;15.80;99.90;;;;;;5075964;28;20048;-70
2023/03/06 12:44:50;;;;;;;16.00;2.80;;;15.60;99.90;;;;;;5075863;28;20066;-70
2023/03/06 12:47:22;;;;;;;19.17;6.93;;;15.40;99.90;;;;;;5075612;28;20049;-70
2023/03/06 12:49:55;;;;;;;19.88;3.75;;;15.30;99.90;;;;;;5075091;28;20036;-71
2023/03/06 12:52:32;;;;;;;15.65;3.25;;;15.30;99.90;;;;;;5095583;28;20119;-71
2023/03/06 12:55:03;;;;;;;18.95;3.00;;;15.10;99.90;;;;;;5095617;28;20132;-70
2023/03/06 12:57:29;;;;;;;16.08;3.38;;;15.10;99.90;;;;;;5095962;28;20020;-70
2023/03/06 12:59:55;;;;;;;25.20;3.77;;;15.00;99.90;;;;;;5095682;28;20020;-70
2023/03/06 13:03:03;;;;;;;18.50;3.70;;;14.90;99.90;;;;;;5095527;28;20258;-70